sensor_id;sensor_type;location;lat;lon;timestamp;P1;durP1;ratioP1;P2;durP2;ratioP2
19006;SDS011;9636;47.382;8.480;2022-07-06T00:00:14;3.37;;;2.50;;
19006;SDS011;9636;47.382;8.480;2022-07-06T00:02:41;4.83;;;2.20;;
19006;SDS011;9636;47.382;8.480;2022-07-06T00:05:08;3.20;;;2.30;;
19006;SDS011;9636;47.382;8.480;2022-07-06T00:07:35;4.57;;;2.50;;
19006;SDS011;9636;47.382;8.480;2022-07-06T00:10:03;3.40;;;2.27;;
19006;SDS011;9636;47.382;8.480;2022-07-06T00:12:30;3.17;;;2.07;;
19006;SDS011;9636;47.382;8.480;2022-07-06T00:14:57;4.30;;;2.40;;
19006;SDS011;9636;47.382;8.480;2022-07-06T00:17:24;3.57;;;2.30;;
19006;SDS011;9636;47.382;8.480;2022-07-06T00:19:51;2.43;;;2.10;;
19006;SDS011;9636;47.382;8.480;2022-07-06T00:22:18;2.83;;;2.40;;
19006;SDS011;9636;47.382;8.480;2022-07-06T00:24:45;3.90;;;2.60;;
19006;SDS011;9636;47.382;8.480;2022-07-06T00:27:13;7.13;;;2.27;;
19006;SDS011;9636;47.382;8.480;2022-07-06T00:29:40;3.97;;;2.87;;
19006;SDS011;9636;47.382;8.480;2022-07-06T00:32:09;5.83;;;2.07;;
19006;SDS011;9636;47.382;8.480;2022-07-06T00:34:36;4.40;;;2.30;;
19006;SDS011;9636;47.382;8.480;2022-07-06T00:37:04;3.03;;;2.10;;
19006;SDS011;9636;47.382;8.480;2022-07-06T00:39:31;4.80;;;2.47;;
19006;SDS011;9636;47.382;8.480;2022-07-06T00:41:58;2.60;;;2.40;;
19006;SDS011;9636;47.382;8.480;2022-07-06T00:44:27;3.50;;;2.67;;
19006;SDS011;9636;47.382;8.480;2022-07-06T00:46:54;5.57;;;2.60;;
19006;SDS011;9636;47.382;8.480;2022-07-06T00:49:21;4.03;;;2.37;;
19006;SDS011;9636;47.382;8.480;2022-07-06T00:52:06;2.57;;;2.37;;
19006;SDS011;9636;47.382;8.480;2022-07-06T00:54:33;8.53;;;2.80;;
19006;SDS011;9636;47.382;8.480;2022-07-06T00:57:02;3.60;;;2.90;;
19006;SDS011;9636;47.382;8.480;2022-07-06T00:59:30;4.47;;;2.90;;
19006;SDS011;9636;47.382;8.480;2022-07-06T01:01:57;3.33;;;3.03;;
19006;SDS011;9636;47.382;8.480;2022-07-06T01:04:24;2.90;;;2.70;;
19006;SDS011;9636;47.382;8.480;2022-07-06T01:06:51;4.13;;;2.53;;
19006;SDS011;9636;47.382;8.480;2022-07-06T01:09:19;2.93;;;2.30;;
19006;SDS011;9636;47.382;8.480;2022-07-06T01:11:45;3.83;;;2.70;;
19006;SDS011;9636;47.382;8.480;2022-07-06T01:14:12;6.23;;;2.90;;
19006;SDS011;9636;47.382;8.480;2022-07-06T01:16:42;3.40;;;2.90;;
19006;SDS011;9636;47.382;8.480;2022-07-06T01:19:09;3.20;;;2.90;;
19006;SDS011;9636;47.382;8.480;2022-07-06T01:21:38;2.93;;;2.70;;
19006;SDS011;9636;47.382;8.480;2022-07-06T01:24:06;3.37;;;3.00;;
19006;SDS011;9636;47.382;8.480;2022-07-06T01:26:33;4.90;;;2.77;;
19006;SDS011;9636;47.382;8.480;2022-07-06T01:29:00;6.23;;;3.10;;
19006;SDS011;9636;47.382;8.480;2022-07-06T01:31:27;7.03;;;3.20;;
19006;SDS011;9636;47.382;8.480;2022-07-06T01:33:54;2.70;;;2.50;;
19006;SDS011;9636;47.382;8.480;2022-07-06T01:36:23;3.87;;;2.50;;
19006;SDS011;9636;47.382;8.480;2022-07-06T01:38:52;3.67;;;2.50;;
19006;SDS011;9636;47.382;8.480;2022-07-06T01:41:19;3.47;;;2.40;;
19006;SDS011;9636;47.382;8.480;2022-07-06T01:43:47;2.73;;;2.17;;
19006;SDS011;9636;47.382;8.480;2022-07-06T01:46:14;4.00;;;2.50;;
19006;SDS011;9636;47.382;8.480;2022-07-06T01:48:42;5.10;;;2.77;;
19006;SDS011;9636;47.382;8.480;2022-07-06T01:51:09;3.57;;;2.50;;
19006;SDS011;9636;47.382;8.480;2022-07-06T01:53:36;2.37;;;2.17;;
19006;SDS011;9636;47.382;8.480;2022-07-06T01:56:05;3.00;;;1.93;;
19006;SDS011;9636;47.382;8.480;2022-07-06T01:58:33;5.00;;;2.37;;
19006;SDS011;9636;47.382;8.480;2022-07-06T02:01:00;2.30;;;2.07;;
19006;SDS011;9636;47.382;8.480;2022-07-06T02:03:32;2.43;;;2.13;;
19006;SDS011;9636;47.382;8.480;2022-07-06T02:05:59;3.50;;;2.23;;
19006;SDS011;9636;47.382;8.480;2022-07-06T02:08:26;3.87;;;2.20;;
19006;SDS011;9636;47.382;8.480;2022-07-06T02:10:52;6.80;;;2.53;;
19006;SDS011;9636;47.382;8.480;2022-07-06T02:13:21;2.53;;;2.13;;
19006;SDS011;9636;47.382;8.480;2022-07-06T02:15:48;5.33;;;2.30;;
19006;SDS011;9636;47.382;8.480;2022-07-06T02:18:14;5.20;;;2.50;;
19006;SDS011;9636;47.382;8.480;2022-07-06T02:20:41;3.13;;;2.10;;
19006;SDS011;9636;47.382;8.480;2022-07-06T02:23:08;4.93;;;2.60;;
19006;SDS011;9636;47.382;8.480;2022-07-06T02:25:35;2.50;;;2.30;;
19006;SDS011;9636;47.382;8.480;2022-07-06T02:28:02;2.90;;;2.37;;
19006;SDS011;9636;47.382;8.480;2022-07-06T02:30:31;5.00;;;2.50;;
19006;SDS011;9636;47.382;8.480;2022-07-06T02:32:58;6.27;;;2.13;;
19006;SDS011;9636;47.382;8.480;2022-07-06T02:35:25;3.47;;;2.50;;
19006;SDS011;9636;47.382;8.480;2022-07-06T02:37:52;6.83;;;2.47;;
19006;SDS011;9636;47.382;8.480;2022-07-06T02:40:19;5.60;;;2.67;;
19006;SDS011;9636;47.382;8.480;2022-07-06T02:42:46;3.70;;;2.40;;
19006;SDS011;9636;47.382;8.480;2022-07-06T02:45:13;6.90;;;2.90;;
19006;SDS011;9636;47.382;8.480;2022-07-06T02:47:41;3.87;;;2.77;;
19006;SDS011;9636;47.382;8.480;2022-07-06T02:50:08;3.67;;;2.40;;
19006;SDS011;9636;47.382;8.480;2022-07-06T02:52:35;3.10;;;2.20;;
19006;SDS011;9636;47.382;8.480;2022-07-06T02:55:02;5.33;;;2.70;;
19006;SDS011;9636;47.382;8.480;2022-07-06T02:57:29;5.23;;;2.30;;
19006;SDS011;9636;47.382;8.480;2022-07-06T02:59:56;4.90;;;2.60;;
19006;SDS011;9636;47.382;8.480;2022-07-06T03:02:22;4.23;;;2.63;;
19006;SDS011;9636;47.382;8.480;2022-07-06T03:04:51;3.13;;;2.70;;
19006;SDS011;9636;47.382;8.480;2022-07-06T03:07:17;4.87;;;2.17;;
19006;SDS011;9636;47.382;8.480;2022-07-06T03:09:44;3.60;;;2.40;;
19006;SDS011;9636;47.382;8.480;2022-07-06T03:12:11;4.13;;;2.40;;
19006;SDS011;9636;47.382;8.480;2022-07-06T03:14:38;4.03;;;2.50;;
19006;SDS011;9636;47.382;8.480;2022-07-06T03:17:05;4.70;;;2.50;;
19006;SDS011;9636;47.382;8.480;2022-07-06T03:19:32;2.70;;;2.50;;
19006;SDS011;9636;47.382;8.480;2022-07-06T03:22:00;2.83;;;2.50;;
19006;SDS011;9636;47.382;8.480;2022-07-06T03:24:27;3.83;;;2.40;;
19006;SDS011;9636;47.382;8.480;2022-07-06T03:26:54;2.77;;;2.37;;
19006;SDS011;9636;47.382;8.480;2022-07-06T03:29:21;3.87;;;2.50;;
19006;SDS011;9636;47.382;8.480;2022-07-06T03:31:48;4.17;;;2.53;;
19006;SDS011;9636;47.382;8.480;2022-07-06T03:34:14;4.70;;;2.57;;
19006;SDS011;9636;47.382;8.480;2022-07-06T03:36:41;3.73;;;2.50;;
19006;SDS011;9636;47.382;8.480;2022-07-06T03:39:09;2.77;;;2.57;;
19006;SDS011;9636;47.382;8.480;2022-07-06T03:41:36;3.27;;;2.80;;
19006;SDS011;9636;47.382;8.480;2022-07-06T03:44:03;3.00;;;2.80;;
19006;SDS011;9636;47.382;8.480;2022-07-06T03:46:30;2.50;;;2.30;;
19006;SDS011;9636;47.382;8.480;2022-07-06T03:48:57;3.73;;;2.90;;
19006;SDS011;9636;47.382;8.480;2022-07-06T03:51:23;3.63;;;2.43;;
19006;SDS011;9636;47.382;8.480;2022-07-06T03:53:50;5.53;;;2.70;;
19006;SDS011;9636;47.382;8.480;2022-07-06T03:56:18;3.33;;;2.43;;
19006;SDS011;9636;47.382;8.480;2022-07-06T03:58:54;3.10;;;2.80;;
19006;SDS011;9636;47.382;8.480;2022-07-06T04:01:22;4.07;;;2.60;;
19006;SDS011;9636;47.382;8.480;2022-07-06T04:03:48;5.47;;;2.77;;
19006;SDS011;9636;47.382;8.480;2022-07-06T04:06:15;3.63;;;2.40;;
19006;SDS011;9636;47.382;8.480;2022-07-06T04:08:42;5.00;;;2.47;;
19006;SDS011;9636;47.382;8.480;2022-07-06T04:11:09;4.87;;;2.93;;
19006;SDS011;9636;47.382;8.480;2022-07-06T04:13:37;6.00;;;2.67;;
19006;SDS011;9636;47.382;8.480;2022-07-06T04:16:04;6.13;;;2.80;;
19006;SDS011;9636;47.382;8.480;2022-07-06T04:18:31;6.50;;;2.90;;
19006;SDS011;9636;47.382;8.480;2022-07-06T04:20:58;2.90;;;2.70;;
19006;SDS011;9636;47.382;8.480;2022-07-06T04:23:25;4.87;;;2.50;;
19006;SDS011;9636;47.382;8.480;2022-07-06T04:25:52;3.60;;;2.83;;
19006;SDS011;9636;47.382;8.480;2022-07-06T04:28:18;3.67;;;3.17;;
19006;SDS011;9636;47.382;8.480;2022-07-06T04:30:47;5.13;;;3.30;;
19006;SDS011;9636;47.382;8.480;2022-07-06T04:33:13;2.97;;;2.77;;
19006;SDS011;9636;47.382;8.480;2022-07-06T04:35:40;3.40;;;3.10;;
19006;SDS011;9636;47.382;8.480;2022-07-06T04:38:07;3.43;;;3.10;;
19006;SDS011;9636;47.382;8.480;2022-07-06T04:40:34;5.67;;;2.97;;
19006;SDS011;9636;47.382;8.480;2022-07-06T04:43:01;3.23;;;2.60;;
19006;SDS011;9636;47.382;8.480;2022-07-06T04:45:27;3.40;;;2.63;;
19006;SDS011;9636;47.382;8.480;2022-07-06T04:47:55;5.20;;;3.03;;
19006;SDS011;9636;47.382;8.480;2022-07-06T04:50:22;4.17;;;2.67;;
19006;SDS011;9636;47.382;8.480;2022-07-06T04:52:49;3.10;;;2.30;;
19006;SDS011;9636;47.382;8.480;2022-07-06T04:55:16;4.10;;;2.40;;
19006;SDS011;9636;47.382;8.480;2022-07-06T04:57:42;4.40;;;2.60;;
19006;SDS011;9636;47.382;8.480;2022-07-06T05:00:10;2.77;;;2.57;;
19006;SDS011;9636;47.382;8.480;2022-07-06T05:02:37;3.13;;;2.50;;
19006;SDS011;9636;47.382;8.480;2022-07-06T05:05:06;2.83;;;2.50;;
19006;SDS011;9636;47.382;8.480;2022-07-06T05:07:34;3.93;;;2.70;;
19006;SDS011;9636;47.382;8.480;2022-07-06T05:10:05;3.63;;;2.50;;
19006;SDS011;9636;47.382;8.480;2022-07-06T05:12:32;4.53;;;2.90;;
19006;SDS011;9636;47.382;8.480;2022-07-06T05:14:59;2.80;;;2.60;;
19006;SDS011;9636;47.382;8.480;2022-07-06T05:17:26;5.03;;;2.70;;
19006;SDS011;9636;47.382;8.480;2022-07-06T05:19:53;3.60;;;2.60;;
19006;SDS011;9636;47.382;8.480;2022-07-06T05:22:21;3.13;;;2.70;;
19006;SDS011;9636;47.382;8.480;2022-07-06T05:24:49;4.67;;;2.60;;
19006;SDS011;9636;47.382;8.480;2022-07-06T05:27:16;4.23;;;2.80;;
19006;SDS011;9636;47.382;8.480;2022-07-06T05:29:42;4.43;;;2.53;;
19006;SDS011;9636;47.382;8.480;2022-07-06T05:32:09;4.47;;;3.03;;
19006;SDS011;9636;47.382;8.480;2022-07-06T05:34:36;4.35;;;2.70;;
19006;SDS011;9636;47.382;8.480;2022-07-06T05:37:03;2.70;;;2.50;;
19006;SDS011;9636;47.382;8.480;2022-07-06T05:39:31;3.70;;;2.67;;
19006;SDS011;9636;47.382;8.480;2022-07-06T05:41:58;4.20;;;2.38;;
19006;SDS011;9636;47.382;8.480;2022-07-06T05:44:24;5.47;;;2.58;;
19006;SDS011;9636;47.382;8.480;2022-07-06T05:46:51;5.05;;;2.80;;
19006;SDS011;9636;47.382;8.480;2022-07-06T05:49:38;4.93;;;2.58;;
19006;SDS011;9636;47.382;8.480;2022-07-06T05:52:22;4.90;;;2.75;;
19006;SDS011;9636;47.382;8.480;2022-07-06T05:54:50;3.05;;;2.72;;
19006;SDS011;9636;47.382;8.480;2022-07-06T05:57:17;4.47;;;2.80;;
19006;SDS011;9636;47.382;8.480;2022-07-06T05:59:44;5.40;;;2.67;;
19006;SDS011;9636;47.382;8.480;2022-07-06T06:02:11;6.22;;;2.97;;
19006;SDS011;9636;47.382;8.480;2022-07-06T06:04:37;4.00;;;2.45;;
19006;SDS011;9636;47.382;8.480;2022-07-06T06:07:04;2.67;;;2.13;;
19006;SDS011;9636;47.382;8.480;2022-07-06T06:09:31;4.22;;;2.65;;
19006;SDS011;9636;47.382;8.480;2022-07-06T06:11:59;4.78;;;2.40;;
19006;SDS011;9636;47.382;8.480;2022-07-06T06:14:26;4.70;;;2.60;;
19006;SDS011;9636;47.382;8.480;2022-07-06T06:16:53;5.38;;;2.72;;
19006;SDS011;9636;47.382;8.480;2022-07-06T06:19:19;7.65;;;2.70;;
19006;SDS011;9636;47.382;8.480;2022-07-06T06:21:46;2.72;;;2.53;;
19006;SDS011;9636;47.382;8.480;2022-07-06T06:24:13;5.47;;;2.70;;
19006;SDS011;9636;47.382;8.480;2022-07-06T06:26:40;6.35;;;3.10;;
19006;SDS011;9636;47.382;8.480;2022-07-06T06:29:08;2.72;;;2.38;;
19006;SDS011;9636;47.382;8.480;2022-07-06T06:31:35;5.80;;;2.67;;
19006;SDS011;9636;47.382;8.480;2022-07-06T06:34:02;3.80;;;2.42;;
19006;SDS011;9636;47.382;8.480;2022-07-06T06:36:28;4.13;;;2.63;;
19006;SDS011;9636;47.382;8.480;2022-07-06T06:38:55;5.75;;;2.70;;
19006;SDS011;9636;47.382;8.480;2022-07-06T06:41:22;5.50;;;2.25;;
19006;SDS011;9636;47.382;8.480;2022-07-06T06:43:49;3.58;;;2.55;;
19006;SDS011;9636;47.382;8.480;2022-07-06T06:46:17;2.88;;;2.38;;
19006;SDS011;9636;47.382;8.480;2022-07-06T06:48:44;3.40;;;2.50;;
19006;SDS011;9636;47.382;8.480;2022-07-06T06:51:10;3.63;;;2.20;;
19006;SDS011;9636;47.382;8.480;2022-07-06T06:53:37;4.30;;;2.58;;
19006;SDS011;9636;47.382;8.480;2022-07-06T06:56:04;5.25;;;2.97;;
19006;SDS011;9636;47.382;8.480;2022-07-06T06:58:31;2.42;;;2.22;;
19006;SDS011;9636;47.382;8.480;2022-07-06T07:00:58;4.10;;;2.58;;
19006;SDS011;9636;47.382;8.480;2022-07-06T07:03:26;3.03;;;2.40;;
19006;SDS011;9636;47.382;8.480;2022-07-06T07:05:52;4.38;;;2.70;;
19006;SDS011;9636;47.382;8.480;2022-07-06T07:08:19;4.15;;;2.80;;
19006;SDS011;9636;47.382;8.480;2022-07-06T07:10:46;7.47;;;3.00;;
19006;SDS011;9636;47.382;8.480;2022-07-06T07:13:13;4.25;;;2.42;;
19006;SDS011;9636;47.382;8.480;2022-07-06T07:15:39;3.17;;;2.55;;
19006;SDS011;9636;47.382;8.480;2022-07-06T07:18:06;3.13;;;2.33;;
19006;SDS011;9636;47.382;8.480;2022-07-06T07:20:34;4.32;;;2.60;;
19006;SDS011;9636;47.382;8.480;2022-07-06T07:23:01;3.65;;;2.38;;
19006;SDS011;9636;47.382;8.480;2022-07-06T07:25:28;6.68;;;2.75;;
19006;SDS011;9636;47.382;8.480;2022-07-06T07:27:55;2.67;;;2.47;;
19006;SDS011;9636;47.382;8.480;2022-07-06T07:30:22;5.53;;;2.70;;
19006;SDS011;9636;47.382;8.480;2022-07-06T07:32:49;4.65;;;2.63;;
19006;SDS011;9636;47.382;8.480;2022-07-06T07:35:15;3.40;;;2.42;;
19006;SDS011;9636;47.382;8.480;2022-07-06T07:37:43;2.95;;;2.65;;
19006;SDS011;9636;47.382;8.480;2022-07-06T07:40:10;4.57;;;2.95;;
19006;SDS011;9636;47.382;8.480;2022-07-06T07:42:37;2.80;;;2.50;;
19006;SDS011;9636;47.382;8.480;2022-07-06T07:45:05;4.20;;;2.75;;
19006;SDS011;9636;47.382;8.480;2022-07-06T07:47:33;2.75;;;2.53;;
19006;SDS011;9636;47.382;8.480;2022-07-06T07:49:59;5.90;;;2.80;;
19006;SDS011;9636;47.382;8.480;2022-07-06T07:52:26;3.95;;;2.58;;
19006;SDS011;9636;47.382;8.480;2022-07-06T07:54:54;4.95;;;2.40;;
19006;SDS011;9636;47.382;8.480;2022-07-06T07:57:21;4.68;;;2.53;;
19006;SDS011;9636;47.382;8.480;2022-07-06T07:59:48;8.02;;;2.83;;
19006;SDS011;9636;47.382;8.480;2022-07-06T08:02:15;3.47;;;2.65;;
19006;SDS011;9636;47.382;8.480;2022-07-06T08:04:41;5.25;;;2.47;;
19006;SDS011;9636;47.382;8.480;2022-07-06T08:07:08;2.78;;;2.58;;
19006;SDS011;9636;47.382;8.480;2022-07-06T08:09:35;4.50;;;2.80;;
19006;SDS011;9636;47.382;8.480;2022-07-06T08:12:03;3.97;;;2.60;;
19006;SDS011;9636;47.382;8.480;2022-07-06T08:14:30;3.88;;;2.75;;
19006;SDS011;9636;47.382;8.480;2022-07-06T08:16:57;4.03;;;2.80;;
19006;SDS011;9636;47.382;8.480;2022-07-06T08:19:24;5.18;;;2.65;;
19006;SDS011;9636;47.382;8.480;2022-07-06T08:21:51;10.27;;;3.15;;
19006;SDS011;9636;47.382;8.480;2022-07-06T08:24:19;5.25;;;3.13;;
19006;SDS011;9636;47.382;8.480;2022-07-06T08:26:45;5.35;;;2.80;;
19006;SDS011;9636;47.382;8.480;2022-07-06T08:29:14;3.65;;;3.20;;
19006;SDS011;9636;47.382;8.480;2022-07-06T08:31:41;3.78;;;3.40;;
19006;SDS011;9636;47.382;8.480;2022-07-06T08:34:07;5.13;;;3.25;;
19006;SDS011;9636;47.382;8.480;2022-07-06T08:36:34;7.53;;;2.90;;
19006;SDS011;9636;47.382;8.480;2022-07-06T08:39:01;4.22;;;3.08;;
19006;SDS011;9636;47.382;8.480;2022-07-06T08:41:28;3.60;;;3.00;;
19006;SDS011;9636;47.382;8.480;2022-07-06T08:43:56;4.95;;;2.80;;
19006;SDS011;9636;47.382;8.480;2022-07-06T08:46:24;3.05;;;2.75;;
19006;SDS011;9636;47.382;8.480;2022-07-06T08:48:55;8.23;;;2.92;;
19006;SDS011;9636;47.382;8.480;2022-07-06T08:51:23;3.65;;;2.92;;
19006;SDS011;9636;47.382;8.480;2022-07-06T08:53:50;4.13;;;2.50;;
19006;SDS011;9636;47.382;8.480;2022-07-06T08:56:19;4.65;;;2.80;;
19006;SDS011;9636;47.382;8.480;2022-07-06T08:58:46;3.80;;;2.97;;
19006;SDS011;9636;47.382;8.480;2022-07-06T09:01:12;3.65;;;2.70;;
19006;SDS011;9636;47.382;8.480;2022-07-06T09:03:41;5.30;;;2.63;;
19006;SDS011;9636;47.382;8.480;2022-07-06T09:06:07;8.60;;;2.80;;
19006;SDS011;9636;47.382;8.480;2022-07-06T09:08:35;2.90;;;2.70;;
19006;SDS011;9636;47.382;8.480;2022-07-06T09:11:02;3.28;;;2.95;;
19006;SDS011;9636;47.382;8.480;2022-07-06T09:13:29;4.53;;;2.70;;
19006;SDS011;9636;47.382;8.480;2022-07-06T09:15:56;4.97;;;2.80;;
19006;SDS011;9636;47.382;8.480;2022-07-06T09:18:36;5.50;;;2.70;;
19006;SDS011;9636;47.382;8.480;2022-07-06T09:21:04;6.65;;;2.80;;
19006;SDS011;9636;47.382;8.480;2022-07-06T09:23:31;5.18;;;2.72;;
19006;SDS011;9636;47.382;8.480;2022-07-06T09:25:59;3.75;;;2.80;;
19006;SDS011;9636;47.382;8.480;2022-07-06T09:28:39;3.35;;;2.60;;
19006;SDS011;9636;47.382;8.480;2022-07-06T09:31:07;7.88;;;3.25;;
19006;SDS011;9636;47.382;8.480;2022-07-06T09:33:34;3.60;;;2.72;;
19006;SDS011;9636;47.382;8.480;2022-07-06T09:36:01;6.35;;;3.00;;
19006;SDS011;9636;47.382;8.480;2022-07-06T09:38:29;2.92;;;2.58;;
19006;SDS011;9636;47.382;8.480;2022-07-06T09:40:56;4.53;;;2.70;;
19006;SDS011;9636;47.382;8.480;2022-07-06T09:43:23;4.57;;;2.67;;
19006;SDS011;9636;47.382;8.480;2022-07-06T09:45:51;6.18;;;2.72;;
19006;SDS011;9636;47.382;8.480;2022-07-06T09:48:19;5.82;;;2.83;;
19006;SDS011;9636;47.382;8.480;2022-07-06T09:50:48;5.00;;;2.80;;
19006;SDS011;9636;47.382;8.480;2022-07-06T09:53:18;4.15;;;3.08;;
19006;SDS011;9636;47.382;8.480;2022-07-06T09:55:47;5.70;;;3.00;;
19006;SDS011;9636;47.382;8.480;2022-07-06T09:58:15;5.55;;;2.58;;
19006;SDS011;9636;47.382;8.480;2022-07-06T10:00:42;4.93;;;2.90;;
19006;SDS011;9636;47.382;8.480;2022-07-06T10:03:09;5.82;;;3.30;;
19006;SDS011;9636;47.382;8.480;2022-07-06T10:05:38;6.30;;;2.95;;
19006;SDS011;9636;47.382;8.480;2022-07-06T10:08:05;3.70;;;2.90;;
19006;SDS011;9636;47.382;8.480;2022-07-06T10:10:34;3.70;;;2.60;;
19006;SDS011;9636;47.382;8.480;2022-07-06T10:13:03;4.18;;;2.80;;
19006;SDS011;9636;47.382;8.480;2022-07-06T10:15:32;5.70;;;3.03;;
19006;SDS011;9636;47.382;8.480;2022-07-06T10:18:00;3.75;;;2.83;;
19006;SDS011;9636;47.382;8.480;2022-07-06T10:20:29;4.22;;;3.10;;
19006;SDS011;9636;47.382;8.480;2022-07-06T10:23:01;3.22;;;2.92;;
19006;SDS011;9636;47.382;8.480;2022-07-06T10:25:29;7.15;;;2.83;;
19006;SDS011;9636;47.382;8.480;2022-07-06T10:27:58;4.82;;;3.10;;
19006;SDS011;9636;47.382;8.480;2022-07-06T10:30:27;4.75;;;3.13;;
19006;SDS011;9636;47.382;8.480;2022-07-06T10:32:55;6.00;;;3.10;;
19006;SDS011;9636;47.382;8.480;2022-07-06T10:35:22;4.60;;;2.83;;
19006;SDS011;9636;47.382;8.480;2022-07-06T10:38:02;5.97;;;3.25;;
19006;SDS011;9636;47.382;8.480;2022-07-06T10:40:34;3.70;;;3.00;;
19006;SDS011;9636;47.382;8.480;2022-07-06T10:43:19;4.85;;;3.17;;
19006;SDS011;9636;47.382;8.480;2022-07-06T10:45:50;6.80;;;3.33;;
19006;SDS011;9636;47.382;8.480;2022-07-06T10:48:19;6.70;;;3.60;;
19006;SDS011;9636;47.382;8.480;2022-07-06T10:50:48;7.85;;;3.30;;
19006;SDS011;9636;47.382;8.480;2022-07-06T10:53:16;3.78;;;3.38;;
19006;SDS011;9636;47.382;8.480;2022-07-06T10:55:44;5.68;;;3.05;;
19006;SDS011;9636;47.382;8.480;2022-07-06T10:58:12;3.22;;;2.88;;
19006;SDS011;9636;47.382;8.480;2022-07-06T11:00:47;8.13;;;2.83;;
19006;SDS011;9636;47.382;8.480;2022-07-06T11:06:08;5.53;;;2.60;;
19006;SDS011;9636;47.382;8.480;2022-07-06T11:08:43;4.63;;;2.90;;
19006;SDS011;9636;47.382;8.480;2022-07-06T11:11:12;3.03;;;2.72;;
19006;SDS011;9636;47.382;8.480;2022-07-06T11:13:51;4.18;;;2.85;;
19006;SDS011;9636;47.382;8.480;2022-07-06T11:16:20;5.97;;;2.78;;
19006;SDS011;9636;47.382;8.480;2022-07-06T11:18:50;4.18;;;2.28;;
19006;SDS011;9636;47.382;8.480;2022-07-06T11:21:32;5.63;;;2.45;;
19006;SDS011;9636;47.382;8.480;2022-07-06T11:24:00;5.55;;;2.28;;
19006;SDS011;9636;47.382;8.480;2022-07-06T11:26:27;5.05;;;2.10;;
19006;SDS011;9636;47.382;8.480;2022-07-06T11:28:56;2.50;;;2.30;;
19006;SDS011;9636;47.382;8.480;2022-07-06T11:31:25;3.35;;;2.20;;
19006;SDS011;9636;47.382;8.480;2022-07-06T11:33:53;4.25;;;2.17;;
19006;SDS011;9636;47.382;8.480;2022-07-06T11:36:21;4.80;;;2.30;;
19006;SDS011;9636;47.382;8.480;2022-07-06T11:38:48;2.63;;;2.42;;
19006;SDS011;9636;47.382;8.480;2022-07-06T11:41:16;2.60;;;2.40;;
19006;SDS011;9636;47.382;8.480;2022-07-06T11:43:44;6.97;;;2.67;;
19006;SDS011;9636;47.382;8.480;2022-07-06T11:46:21;2.72;;;2.53;;
19006;SDS011;9636;47.382;8.480;2022-07-06T11:48:55;2.65;;;2.30;;
19006;SDS011;9636;47.382;8.480;2022-07-06T11:51:23;3.38;;;2.60;;
19006;SDS011;9636;47.382;8.480;2022-07-06T11:53:52;2.72;;;2.22;;
19006;SDS011;9636;47.382;8.480;2022-07-06T11:56:20;3.20;;;2.15;;
19006;SDS011;9636;47.382;8.480;2022-07-06T11:58:50;3.70;;;2.45;;
19006;SDS011;9636;47.382;8.480;2022-07-06T12:01:18;5.50;;;2.78;;
19006;SDS011;9636;47.382;8.480;2022-07-06T12:03:45;2.95;;;2.28;;
19006;SDS011;9636;47.382;8.480;2022-07-06T12:06:14;3.75;;;2.15;;
19006;SDS011;9636;47.382;8.480;2022-07-06T12:08:45;2.65;;;2.28;;
19006;SDS011;9636;47.382;8.480;2022-07-06T12:11:18;4.75;;;2.55;;
19006;SDS011;9636;47.382;8.480;2022-07-06T12:13:46;5.72;;;2.45;;
19006;SDS011;9636;47.382;8.480;2022-07-06T12:16:13;5.22;;;2.85;;
19006;SDS011;9636;47.382;8.480;2022-07-06T12:18:41;3.72;;;2.22;;
19006;SDS011;9636;47.382;8.480;2022-07-06T12:21:10;3.95;;;2.60;;
19006;SDS011;9636;47.382;8.480;2022-07-06T12:23:41;3.78;;;2.35;;
19006;SDS011;9636;47.382;8.480;2022-07-06T12:26:09;4.40;;;2.35;;
19006;SDS011;9636;47.382;8.480;2022-07-06T12:28:37;3.03;;;2.22;;
19006;SDS011;9636;47.382;8.480;2022-07-06T12:31:04;4.25;;;2.50;;
19006;SDS011;9636;47.382;8.480;2022-07-06T12:33:31;5.13;;;2.50;;
19006;SDS011;9636;47.382;8.480;2022-07-06T12:36:08;3.85;;;2.17;;
19006;SDS011;9636;47.382;8.480;2022-07-06T12:38:36;3.10;;;2.58;;
19006;SDS011;9636;47.382;8.480;2022-07-06T12:41:24;3.15;;;2.65;;
19006;SDS011;9636;47.382;8.480;2022-07-06T12:44:05;4.95;;;2.55;;
19006;SDS011;9636;47.382;8.480;2022-07-06T12:46:33;3.45;;;2.30;;
19006;SDS011;9636;47.382;8.480;2022-07-06T12:49:03;2.95;;;2.50;;
19006;SDS011;9636;47.382;8.480;2022-07-06T12:54:40;5.97;;;2.20;;
19006;SDS011;9636;47.382;8.480;2022-07-06T12:57:09;3.05;;;2.50;;
19006;SDS011;9636;47.382;8.480;2022-07-06T12:59:39;4.18;;;2.10;;
19006;SDS011;9636;47.382;8.480;2022-07-06T13:02:08;2.00;;;1.90;;
19006;SDS011;9636;47.382;8.480;2022-07-06T13:04:42;5.85;;;2.38;;
19006;SDS011;9636;47.382;8.480;2022-07-06T13:07:17;2.40;;;2.15;;
19006;SDS011;9636;47.382;8.480;2022-07-06T13:09:46;2.42;;;2.22;;
19006;SDS011;9636;47.382;8.480;2022-07-06T13:12:13;3.35;;;2.20;;
19006;SDS011;9636;47.382;8.480;2022-07-06T13:14:40;4.18;;;2.10;;
19006;SDS011;9636;47.382;8.480;2022-07-06T13:17:07;5.07;;;2.17;;
19006;SDS011;9636;47.382;8.480;2022-07-06T13:19:33;3.25;;;2.03;;
19006;SDS011;9636;47.382;8.480;2022-07-06T13:22:00;4.63;;;2.22;;
19006;SDS011;9636;47.382;8.480;2022-07-06T13:24:27;9.25;;;4.80;;
19006;SDS011;9636;47.382;8.480;2022-07-06T13:26:55;6.40;;;2.40;;
19006;SDS011;9636;47.382;8.480;2022-07-06T13:29:22;3.75;;;2.20;;
19006;SDS011;9636;47.382;8.480;2022-07-06T13:31:50;6.07;;;2.20;;
19006;SDS011;9636;47.382;8.480;2022-07-06T13:34:17;10.02;;;2.20;;
19006;SDS011;9636;47.382;8.480;2022-07-06T13:36:43;2.20;;;2.00;;
19006;SDS011;9636;47.382;8.480;2022-07-06T13:39:10;3.38;;;1.88;;
19006;SDS011;9636;47.382;8.480;2022-07-06T13:41:37;3.85;;;2.00;;
19006;SDS011;9636;47.382;8.480;2022-07-06T13:44:05;4.40;;;2.15;;
19006;SDS011;9636;47.382;8.480;2022-07-06T13:46:33;6.78;;;2.20;;
19006;SDS011;9636;47.382;8.480;2022-07-06T13:49:01;3.53;;;1.90;;
19006;SDS011;9636;47.382;8.480;2022-07-06T13:51:29;3.90;;;2.10;;
19006;SDS011;9636;47.382;8.480;2022-07-06T13:53:57;4.30;;;2.00;;
19006;SDS011;9636;47.382;8.480;2022-07-06T13:56:24;3.00;;;1.98;;
19006;SDS011;9636;47.382;8.480;2022-07-06T13:58:52;6.43;;;2.35;;
19006;SDS011;9636;47.382;8.480;2022-07-06T14:01:20;4.30;;;2.10;;
19006;SDS011;9636;47.382;8.480;2022-07-06T14:03:47;4.53;;;2.30;;
19006;SDS011;9636;47.382;8.480;2022-07-06T14:06:15;2.97;;;2.10;;
19006;SDS011;9636;47.382;8.480;2022-07-06T14:08:42;2.65;;;2.10;;
19006;SDS011;9636;47.382;8.480;2022-07-06T14:11:09;2.83;;;2.10;;
19006;SDS011;9636;47.382;8.480;2022-07-06T14:13:37;3.72;;;2.15;;
19006;SDS011;9636;47.382;8.480;2022-07-06T14:16:04;3.47;;;2.00;;
19006;SDS011;9636;47.382;8.480;2022-07-06T14:18:32;4.28;;;2.03;;
19006;SDS011;9636;47.382;8.480;2022-07-06T14:20:59;3.70;;;2.03;;
19006;SDS011;9636;47.382;8.480;2022-07-06T14:23:26;6.40;;;2.33;;
19006;SDS011;9636;47.382;8.480;2022-07-06T14:25:54;2.75;;;2.10;;
19006;SDS011;9636;47.382;8.480;2022-07-06T14:28:21;2.58;;;2.03;;
19006;SDS011;9636;47.382;8.480;2022-07-06T14:30:48;2.75;;;1.80;;
19006;SDS011;9636;47.382;8.480;2022-07-06T14:33:15;2.10;;;1.90;;
19006;SDS011;9636;47.382;8.480;2022-07-06T14:35:45;2.47;;;1.92;;
19006;SDS011;9636;47.382;8.480;2022-07-06T14:38:13;2.72;;;2.13;;
19006;SDS011;9636;47.382;8.480;2022-07-06T14:40:41;2.20;;;2.00;;
19006;SDS011;9636;47.382;8.480;2022-07-06T14:43:08;2.72;;;1.90;;
19006;SDS011;9636;47.382;8.480;2022-07-06T14:45:35;3.17;;;2.00;;
19006;SDS011;9636;47.382;8.480;2022-07-06T14:48:02;1.98;;;1.77;;
19006;SDS011;9636;47.382;8.480;2022-07-06T14:50:30;2.60;;;1.73;;
19006;SDS011;9636;47.382;8.480;2022-07-06T14:52:58;2.35;;;1.65;;
19006;SDS011;9636;47.382;8.480;2022-07-06T14:55:25;3.20;;;1.85;;
19006;SDS011;9636;47.382;8.480;2022-07-06T14:57:52;3.78;;;1.80;;
19006;SDS011;9636;47.382;8.480;2022-07-06T15:00:20;2.40;;;1.67;;
19006;SDS011;9636;47.382;8.480;2022-07-06T15:02:47;2.00;;;1.80;;
19006;SDS011;9636;47.382;8.480;2022-07-06T15:05:14;5.57;;;2.00;;
19006;SDS011;9636;47.382;8.480;2022-07-06T15:07:41;4.72;;;1.90;;
19006;SDS011;9636;47.382;8.480;2022-07-06T15:10:09;5.03;;;2.10;;